Time;durP1;ratioP1;P1;durP2;ratioP2;P2;SDS_P1;SDS_P2;PMS_P1;PMS_P2;Temp;Humidity;BMP_temperature;BMP_pressure;BME280_temperature;BME280_humidity;BME280_pressure;Samples;Min_cycle;Max_cycle;Signal;HPM_P1;HPM_P2
2022/11/21 00:00:30;;;;;;;24.38;11.70;;;-2.60;99.90;;;;;;5017144;28;20022;-67
2022/11/21 00:03:00;;;;;;;25.33;13.15;;;-2.50;99.90;;;;;;5016902;28;20381;-67
2022/11/21 00:05:29;;;;;;;25.77;12.55;;;-2.50;99.90;;;;;;5016838;28;20493;-67
2022/11/21 00:07:56;;;;;;;22.02;12.60;;;-2.50;99.90;;;;;;5016730;28;20037;-67
2022/11/21 00:10:22;;;;;;;23.15;11.05;;;-2.40;99.90;;;;;;5016913;28;20386;-67
2022/11/21 00:12:56;;;;;;;22.95;11.63;;;-2.30;99.90;;;;;;5016173;28;20493;-66
2022/11/21 00:15:22;;;;;;;;;;;-2.40;99.90;;;;;;5017360;28;20057;-67
2022/11/21 00:17:47;;;;;;;19.48;10.90;;;-2.30;99.90;;;;;;5016895;28;20351;-67
2022/11/21 00:20:13;;;;;;;24.27;11.60;;;-2.40;99.90;;;;;;5016057;28;20102;-67
2022/11/21 00:22:39;;;;;;;21.27;11.98;;;-2.40;99.90;;;;;;5016668;28;20026;-67
2022/11/21 00:25:05;;;;;;;22.23;10.70;;;-2.40;99.90;;;;;;5016382;28;20053;-68
2022/11/21 00:27:30;;;;;;;19.67;11.02;;;-2.40;99.90;;;;;;5016671;28;20112;-67
2022/11/21 00:29:56;;;;;;;20.52;11.20;;;-2.40;99.90;;;;;;5016688;28;20426;-67
2022/11/21 00:32:21;;;;;;;19.58;10.80;;;-2.40;99.90;;;;;;5016928;28;20034;-67
2022/11/21 00:34:47;;;;;;;23.52;11.48;;;-2.40;99.90;;;;;;5016556;28;20041;-67
2022/11/21 00:37:12;;;;;;;21.02;10.68;;;-2.40;99.90;;;;;;5016049;28;20030;-67
2022/11/21 00:39:38;;;;;;;17.52;9.93;;;-2.30;99.90;;;;;;5016565;28;20018;-68
2022/11/21 00:42:03;;;;;;;21.05;10.82;;;-2.30;99.90;;;;;;5016730;28;20502;-67
2022/11/21 00:44:29;;;;;;;20.95;11.85;;;-2.40;99.90;;;;;;5016351;28;20030;-67
2022/11/21 00:46:54;;;;;;;22.42;12.30;;;-2.40;99.90;;;;;;5016148;28;20034;-66
2022/11/21 00:49:20;;;;;;;16.55;10.52;;;-2.40;99.90;;;;;;5016368;28;20030;-67
2022/11/21 00:51:45;;;;;;;22.48;12.13;;;-2.40;99.90;;;;;;5016537;28;20026;-67
2022/11/21 00:54:11;;;;;;;22.08;10.55;;;-2.40;99.90;;;;;;5016800;28;20113;-67
2022/11/21 00:56:36;;;;;;;29.00;11.40;;;-2.50;99.90;;;;;;5016678;28;20363;-67
2022/11/21 00:59:02;;;;;;;25.52;13.68;;;-2.50;99.90;;;;;;5016540;28;20034;-67
2022/11/21 01:01:27;;;;;;;28.75;14.30;;;-2.50;99.90;;;;;;5016373;28;20030;-67
2022/11/21 01:03:53;;;;;;;24.48;12.90;;;-2.50;99.90;;;;;;5015866;28;20512;-67
2022/11/21 01:06:18;;;;;;;23.00;11.50;;;-2.40;99.90;;;;;;5016019;28;20041;-67
2022/11/21 01:08:44;;;;;;;19.60;10.40;;;-2.40;99.90;;;;;;5015671;28;20033;-67
2022/11/21 01:11:18;;;;;;;17.23;11.60;;;-2.40;99.90;;;;;;5015614;28;20029;-67
2022/11/21 01:13:45;;;;;;;20.10;12.00;;;-2.40;99.90;;;;;;5015841;28;20025;-68
2022/11/21 01:16:14;;;;;;;27.42;12.93;;;-2.40;99.90;;;;;;5016135;28;20022;-69
2022/11/21 01:18:41;;;;;;;23.42;12.88;;;-2.40;99.90;;;;;;5015987;28;20389;-69
2022/11/21 01:21:13;;;;;;;23.90;11.73;;;-2.30;99.90;;;;;;5015864;28;20474;-69
2022/11/21 01:23:38;;;;;;;19.80;12.02;;;-2.30;99.90;;;;;;5015387;28;20071;-69
2022/11/21 01:26:06;;;;;;;18.67;10.77;;;-2.30;99.90;;;;;;5015669;28;20430;-69
2022/11/21 01:28:32;;;;;;;20.58;10.02;;;-2.30;99.90;;;;;;5015587;28;20091;-69
2022/11/21 01:31:27;;;;;;;24.88;10.95;;;-2.20;99.90;;;;;;5015646;28;20034;-69
2022/11/21 01:33:53;;;;;;;22.75;10.38;;;-2.20;99.90;;;;;;5015106;28;20507;-69
2022/11/21 01:36:20;;;;;;;15.05;9.48;;;-2.20;99.90;;;;;;5015387;28;20072;-69
2022/11/21 01:38:48;;;;;;;16.15;9.02;;;-2.20;99.90;;;;;;5015571;28;20050;-70
2022/11/21 01:41:20;;;;;;;17.20;10.43;;;-2.20;99.90;;;;;;5014725;28;20104;-69
2022/11/21 01:43:49;;;;;;;23.50;11.77;;;-2.20;99.90;;;;;;5014328;28;20527;-69
2022/11/21 01:46:17;;;;;;;15.38;9.43;;;-2.20;99.90;;;;;;5015226;28;20026;-70
2022/11/21 01:49:01;;;;;;;18.70;9.95;;;-2.10;99.90;;;;;;5015505;28;20026;-70
2022/11/21 01:51:49;;;;;;;15.90;9.43;;;-2.10;99.90;;;;;;5015816;28;20120;-70
2022/11/21 01:54:23;;;;;;;16.73;9.32;;;-2.10;99.90;;;;;;5014594;28;20022;-69
2022/11/21 01:56:55;;;;;;;19.10;10.00;;;-2.10;99.90;;;;;;5013469;28;20389;-69
2022/11/21 01:59:28;;;;;;;16.27;10.55;;;-2.10;99.90;;;;;;5015645;28;20029;-69
2022/11/21 02:01:55;;;;;;;18.85;10.65;;;-2.10;99.90;;;;;;5014997;28;20026;-69
2022/11/21 02:04:25;;;;;;;18.02;11.10;;;-2.20;99.90;;;;;;5014729;28;20038;-69
2022/11/21 02:06:50;;;;;;;16.88;9.60;;;-2.10;99.90;;;;;;5014917;28;20032;-70
2022/11/21 02:09:17;;;;;;;19.65;10.68;;;-2.10;99.90;;;;;;5014173;28;20026;-70
2022/11/21 02:11:52;;;;;;;21.40;11.07;;;-2.10;99.90;;;;;;5015053;28;20045;-70
2022/11/21 02:14:18;;;;;;;18.70;10.85;;;-2.10;99.90;;;;;;5014920;28;20393;-69
2022/11/21 02:16:44;;;;;;;20.00;11.30;;;-2.10;99.90;;;;;;5014915;28;20030;-70
2022/11/21 02:19:18;;;;;;;19.23;11.43;;;-2.10;99.90;;;;;;5014900;28;20025;-69
2022/11/21 02:22:14;;;;;;;22.00;13.50;;;-2.10;99.90;;;;;;5013687;28;20040;-69
2022/11/21 02:24:48;;;;;;;22.25;11.10;;;-2.10;99.90;;;;;;5013380;28;20563;-69
2022/11/21 02:27:14;;;;;;;22.70;11.70;;;-2.10;99.90;;;;;;5014575;28;20033;-69
2022/11/21 02:29:40;;;;;;;21.77;12.90;;;-2.10;99.90;;;;;;5030596;28;20041;-69
2022/11/21 02:32:06;;;;;;;28.42;13.30;;;-2.10;99.90;;;;;;5013950;28;20029;-69
2022/11/21 02:34:32;;;;;;;24.10;12.98;;;-2.10;99.90;;;;;;5014278;28;20037;-69
2022/11/21 02:36:58;;;;;;;26.58;13.05;;;-2.10;99.90;;;;;;5014230;28;20056;-69
2022/11/21 02:39:32;;;;;;;22.63;13.30;;;-2.00;99.90;;;;;;5013771;28;20052;-69
2022/11/21 02:42:07;;;;;;;20.95;11.82;;;-2.00;99.90;;;;;;5014602;28;20036;-69
2022/11/21 02:44:54;;;;;;;21.27;12.55;;;-2.00;99.90;;;;;;5013975;28;20382;-69
2022/11/21 02:47:21;;;;;;;19.38;11.73;;;-2.00;99.90;;;;;;4994873;28;20034;-69
2022/11/21 02:49:58;;;;;;;22.27;12.18;;;-1.90;99.90;;;;;;4994087;28;20037;-69
2022/11/21 02:52:24;;;;;;;19.33;12.35;;;-1.90;99.90;;;;;;5003310;28;20033;-69
2022/11/21 02:54:49;;;;;;;20.52;11.60;;;-1.90;99.90;;;;;;5013979;28;20156;-69
2022/11/21 02:57:15;;;;;;;21.33;12.07;;;-1.90;99.90;;;;;;5014223;28;20037;-69
2022/11/21 02:59:40;;;;;;;21.20;12.23;;;-1.90;99.90;;;;;;5013978;28;20389;-69
2022/11/21 03:02:06;;;;;;;21.90;11.68;;;-1.90;99.90;;;;;;5012343;28;20456;-69
2022/11/21 03:04:32;;;;;;;21.45;10.98;;;-1.90;99.90;;;;;;5012183;28;20120;-69
2022/11/21 03:06:57;;;;;;;23.50;11.75;;;-1.90;99.90;;;;;;5013786;28;20486;-69
2022/11/21 03:09:23;;;;;;;24.45;12.18;;;-1.90;99.90;;;;;;5014134;28;20389;-69
2022/11/21 03:11:48;;;;;;;19.67;12.48;;;-1.90;99.90;;;;;;5013782;28;20366;-69
2022/11/21 03:14:14;;;;;;;21.30;11.25;;;-1.90;99.90;;;;;;5013671;28;20029;-69
2022/11/21 03:16:39;;;;;;;20.35;11.27;;;-1.90;99.90;;;;;;5013053;28;20033;-69
2022/11/21 03:19:05;;;;;;;29.05;11.70;;;-1.90;99.90;;;;;;5013804;28;20108;-69
2022/11/21 03:21:30;;;;;;;19.63;11.60;;;-1.90;99.90;;;;;;5013901;28;20021;-69
2022/11/21 03:23:56;;;;;;;18.92;10.98;;;-1.90;99.90;;;;;;5013760;28;20064;-69
2022/11/21 03:26:21;;;;;;;17.98;9.88;;;-1.90;99.90;;;;;;5012918;28;20029;-69
2022/11/21 03:28:47;;;;;;;18.63;10.85;;;-1.90;99.90;;;;;;5013574;28;20032;-69
2022/11/21 03:31:12;;;;;;;17.10;9.85;;;-1.80;99.90;;;;;;5013822;28;20033;-69
2022/11/21 03:33:38;;;;;;;16.50;9.35;;;-1.80;99.90;;;;;;5013351;28;20505;-69
2022/11/21 03:36:04;;;;;;;18.23;10.38;;;-1.80;99.90;;;;;;5012836;28;20034;-69
2022/11/21 03:38:29;;;;;;;21.20;10.82;;;-1.80;99.90;;;;;;5013662;28;20033;-70
2022/11/21 03:40:55;;;;;;;15.07;8.68;;;-1.70;99.90;;;;;;5013469;28;20499;-69
2022/11/21 03:43:20;;;;;;;16.45;9.27;;;-1.80;99.90;;;;;;5012736;28;20026;-69
2022/11/21 03:45:46;;;;;;;17.65;9.07;;;-1.70;99.90;;;;;;5013313;28;20030;-69
2022/11/21 03:48:13;;;;;;;17.73;9.15;;;-1.70;99.90;;;;;;5013348;28;20112;-69
2022/11/21 03:50:42;;;;;;;15.70;9.52;;;-1.70;99.90;;;;;;5013170;28;20030;-69
2022/11/21 03:53:07;;;;;;;15.65;8.98;;;-1.70;99.90;;;;;;5013134;28;20025;-69
2022/11/21 03:55:33;;;;;;;17.85;8.70;;;-1.70;99.90;;;;;;5012563;28;20037;-69
2022/11/21 03:57:58;;;;;;;15.05;8.48;;;-1.70;99.90;;;;;;5013545;28;20038;-70
2022/11/21 04:00:24;;;;;;;12.93;8.75;;;-1.60;99.90;;;;;;5013380;28;20022;-69
2022/11/21 04:02:49;;;;;;;18.02;9.13;;;-1.60;99.90;;;;;;5012808;28;20018;-69
2022/11/21 04:05:15;;;;;;;14.57;9.05;;;-1.60;99.90;;;;;;5012908;28;20029;-69
2022/11/21 04:07:40;;;;;;;17.80;7.35;;;-1.50;99.90;;;;;;5012401;28;20026;-69
2022/11/21 04:10:06;;;;;;;12.52;7.28;;;-1.50;99.90;;;;;;5013145;28;20501;-69
2022/11/21 04:12:32;;;;;;;13.13;8.30;;;-1.50;99.90;;;;;;5012983;28;20056;-69
2022/11/21 04:14:57;;;;;;;13.93;6.97;;;-1.50;99.90;;;;;;5012658;28;20097;-69
2022/11/21 04:17:23;;;;;;;17.13;8.20;;;-1.50;99.90;;;;;;5013244;28;20037;-69
2022/11/21 04:19:48;;;;;;;13.55;6.95;;;-1.50;99.90;;;;;;5013061;28;20025;-69
2022/11/21 04:22:14;;;;;;;10.55;7.03;;;-1.50;99.90;;;;;;5013329;28;20029;-69
2022/11/21 04:24:39;;;;;;;12.70;7.72;;;-1.40;99.90;;;;;;5012286;28;20034;-69
2022/11/21 04:27:05;;;;;;;9.98;5.90;;;-1.40;99.90;;;;;;5013267;28;20037;-69
2022/11/21 04:29:30;;;;;;;14.23;6.20;;;-1.40;99.90;;;;;;5012937;28;20494;-69
2022/11/21 04:31:55;;;;;;;12.82;6.55;;;-1.40;99.90;;;;;;5013536;28;20038;-69
2022/11/21 04:34:21;;;;;;;13.88;6.45;;;-1.40;99.90;;;;;;5012348;28;20105;-69
2022/11/21 04:36:46;;;;;;;12.23;5.97;;;-1.30;99.90;;;;;;5012778;28;20482;-70
2022/11/21 04:39:12;;;;;;;9.30;6.10;;;-1.30;99.90;;;;;;5013449;28;20038;-70
2022/11/21 04:41:37;;;;;;;10.82;6.68;;;-1.30;99.90;;;;;;5012393;28;20022;-69
2022/11/21 04:44:03;;;;;;;12.40;5.65;;;-1.30;99.90;;;;;;5013064;28;20030;-69
2022/11/21 04:46:29;;;;;;;9.38;5.97;;;-1.30;99.90;;;;;;5016460;28;20025;-69
2022/11/21 04:48:54;;;;;;;11.63;6.60;;;-1.30;99.90;;;;;;5016385;28;20022;-69
2022/11/21 04:51:20;;;;;;;12.45;6.07;;;-1.30;99.90;;;;;;5016412;28;20076;-70
2022/11/21 04:53:45;;;;;;;8.88;5.68;;;-1.30;99.90;;;;;;5015743;28;20030;-69
2022/11/21 04:56:15;;;;;;;10.10;6.30;;;-1.20;99.90;;;;;;5016142;28;20024;-69
2022/11/21 04:58:41;;;;;;;11.23;6.78;;;-1.20;99.90;;;;;;5016415;28;20037;-69
2022/11/21 05:01:08;;;;;;;12.07;7.03;;;-1.10;99.90;;;;;;5016112;28;20029;-69
2022/11/21 05:03:34;;;;;;;13.15;6.05;;;-1.10;99.90;;;;;;5039488;22;20037;-71
2022/11/21 05:06:00;;;;;;;9.60;5.82;;;-1.00;99.90;;;;;;5016243;28;20030;-72
2022/11/21 05:08:26;;;;;;;11.13;6.35;;;-1.00;99.90;;;;;;5016182;28;20033;-71
2022/11/21 05:13:35;;;;;;;;;;;-0.90;99.90;;;;;;5016266;28;20117;-72
2022/11/21 05:16:00;;;;;;;9.93;5.43;;;-0.90;99.90;;;;;;5015959;28;19953;-71
2022/11/21 05:18:26;;;;;;;8.82;5.40;;;-0.90;99.90;;;;;;5016115;28;20084;-71
2022/11/21 05:20:51;;;;;;;7.53;4.63;;;-0.80;99.90;;;;;;5016420;28;20080;-72
2022/11/21 05:23:17;;;;;;;7.40;5.32;;;-0.80;99.90;;;;;;5015513;28;20022;-72
2022/11/21 05:25:42;;;;;;;7.40;5.20;;;-0.80;99.90;;;;;;5015897;28;20363;-72
2022/11/21 05:28:08;;;;;;;9.55;4.70;;;-0.70;99.90;;;;;;5016425;28;20034;-71
2022/11/21 05:30:34;;;;;;;14.77;5.30;;;-0.70;99.90;;;;;;5015609;28;20531;-72
2022/11/21 05:32:59;;;;;;;9.80;5.70;;;-0.70;99.90;;;;;;5014019;28;20465;-72
2022/11/21 05:35:25;;;;;;;9.32;5.60;;;-0.70;99.90;;;;;;5015643;28;20030;-71
2022/11/21 05:37:57;;;;;;;8.75;5.13;;;-0.60;99.90;;;;;;5015543;28;20508;-72
2022/11/21 05:40:24;;;;;;;10.57;5.22;;;-0.60;99.90;;;;;;5015690;28;20022;-72
2022/11/21 05:45:34;;;;;;;11.20;5.45;;;-0.50;99.90;;;;;;5015771;28;20122;-71
2022/11/21 05:47:59;;;;;;;7.35;5.20;;;-0.50;99.90;;;;;;5015442;28;20496;-72
2022/11/21 05:50:25;;;;;;;9.35;5.18;;;-0.50;99.90;;;;;;5015531;28;20033;-71
2022/11/21 05:52:51;;;;;;;6.55;4.68;;;-0.40;99.90;;;;;;5015187;28;20057;-72
2022/11/21 05:55:16;;;;;;;7.38;4.20;;;-0.40;99.90;;;;;;5023261;23;20504;-71
2022/11/21 05:57:41;;;;;;;6.35;4.60;;;-0.40;99.90;;;;;;5014756;28;20044;-72
2022/11/21 06:00:08;;;;;;;7.47;4.35;;;-0.40;99.90;;;;;;5025483;28;20028;-71
2022/11/21 06:05:17;;;;;;;9.77;4.90;;;-0.30;99.90;;;;;;5034903;28;20029;-71
2022/11/21 06:07:43;;;;;;;6.90;4.82;;;-0.30;99.90;;;;;;5034249;28;20033;-71
2022/11/21 06:10:08;;;;;;;6.68;4.70;;;-0.20;99.90;;;;;;5033495;28;20035;-72
2022/11/21 06:12:34;;;;;;;11.82;5.43;;;-0.20;99.90;;;;;;5035013;28;20033;-71
2022/11/21 06:14:59;;;;;;;9.60;4.90;;;-0.20;99.90;;;;;;5033986;28;20025;-72
2022/11/21 06:17:25;;;;;;;10.63;4.82;;;-0.20;99.90;;;;;;5035186;28;20109;-72
2022/11/21 06:19:51;;;;;;;6.60;4.55;;;-0.20;99.90;;;;;;5034643;28;20481;-72
2022/11/21 06:22:17;;;;;;;8.38;5.28;;;-0.20;99.90;;;;;;5033345;28;20028;-72
2022/11/21 06:24:42;;;;;;;7.57;4.78;;;-0.10;99.90;;;;;;5034767;28;20112;-71
2022/11/21 06:27:08;;;;;;;5.53;4.13;;;-0.10;99.90;;;;;;5034007;28;20068;-71
2022/11/21 06:29:33;;;;;;;8.30;4.80;;;-0.10;99.90;;;;;;5034702;28;20113;-71
2022/11/21 06:31:59;;;;;;;8.70;5.18;;;-0.10;99.90;;;;;;5034648;28;20025;-71
2022/11/21 06:34:25;;;;;;;8.35;4.80;;;0.00;99.90;;;;;;5034353;28;20034;-71
2022/11/21 06:36:51;;;;;;;6.68;4.57;;;0.00;99.90;;;;;;5034542;28;20087;-71
2022/11/21 06:39:16;;;;;;;7.70;4.70;;;0.00;99.90;;;;;;5034272;28;20097;-71
2022/11/21 06:41:42;;;;;;;8.57;4.72;;;0.00;99.90;;;;;;5033966;28;20102;-71
2022/11/21 06:44:07;;;;;;;8.65;4.78;;;0.10;99.90;;;;;;5034323;28;20021;-72
2022/11/21 06:46:33;;;;;;;9.18;4.68;;;0.00;99.90;;;;;;5034237;28;20023;-71
2022/11/21 06:48:58;;;;;;;6.93;5.30;;;0.00;99.90;;;;;;5032608;28;20056;-71
2022/11/21 06:51:24;;;;;;;10.40;4.80;;;0.00;99.90;;;;;;5034170;28;20477;-71
2022/11/21 06:53:58;;;;;;;6.88;4.97;;;0.10;99.90;;;;;;5033792;28;20500;-71
2022/11/21 06:56:24;;;;;;;6.75;4.90;;;0.10;99.90;;;;;;5034331;28;20096;-72
2022/11/21 06:58:50;;;;;;;8.45;4.57;;;0.10;99.90;;;;;;5032697;28;20029;-71
2022/11/21 07:01:16;;;;;;;6.85;4.57;;;0.20;99.90;;;;;;5033438;28;20137;-71
2022/11/21 07:03:41;;;;;;;11.00;5.43;;;0.20;99.90;;;;;;5034035;28;20473;-71
2022/11/21 07:06:07;;;;;;;10.68;5.28;;;0.20;99.90;;;;;;5033943;28;20028;-71
2022/11/21 07:08:34;;;;;;;10.30;5.60;;;0.20;99.90;;;;;;5034569;28;20021;-71
2022/11/21 07:11:05;;;;;;;10.85;5.10;;;0.30;99.90;;;;;;5033623;28;20033;-72
2022/11/21 07:13:31;;;;;;;6.88;5.30;;;0.30;99.90;;;;;;5035202;28;20481;-71
2022/11/21 07:16:08;;;;;;;6.68;4.47;;;0.40;99.90;;;;;;5032317;28;20065;-71
2022/11/21 07:18:34;;;;;;;7.00;4.85;;;0.40;99.90;;;;;;5033881;28;20029;-71
2022/11/21 07:21:03;;;;;;;9.27;4.35;;;0.40;99.90;;;;;;5033842;28;20029;-71
2022/11/21 07:23:32;;;;;;;6.88;5.03;;;0.40;99.90;;;;;;5033785;28;20018;-71
2022/11/21 07:26:05;;;;;;;9.18;5.60;;;0.40;99.90;;;;;;5033126;28;20033;-71
2022/11/21 07:28:32;;;;;;;5.75;4.03;;;0.40;99.90;;;;;;5033855;28;20021;-71
2022/11/21 07:30:59;;;;;;;7.07;4.95;;;0.40;99.90;;;;;;5033681;28;20033;-71
2022/11/21 07:33:25;;;;;;;6.28;4.18;;;0.50;99.90;;;;;;5033296;28;20025;-71
2022/11/21 07:35:51;;;;;;;7.85;5.07;;;0.50;99.90;;;;;;5033701;28;20384;-71
2022/11/21 07:38:17;;;;;;;6.38;4.40;;;0.50;99.90;;;;;;5032730;28;20115;-71
2022/11/21 07:40:42;;;;;;;14.35;7.10;;;0.50;99.90;;;;;;5033317;28;20026;-72
2022/11/21 07:43:09;;;;;;;9.02;6.07;;;0.70;99.90;;;;;;5033270;28;20021;-71
2022/11/21 07:45:35;;;;;;;10.68;6.45;;;0.70;99.90;;;;;;5033174;28;20385;-72
2022/11/21 07:48:03;;;;;;;10.52;6.68;;;0.80;99.90;;;;;;5033480;28;20037;-72
2022/11/21 07:50:29;;;;;;;10.63;6.30;;;0.70;99.90;;;;;;5032833;28;20500;-72
2022/11/21 07:53:06;;;;;;;9.70;6.55;;;0.70;99.90;;;;;;5033428;28;20037;-72
2022/11/21 07:55:32;;;;;;;7.88;5.60;;;0.80;99.90;;;;;;5033052;28;20060;-72
2022/11/21 07:58:02;;;;;;;8.63;5.57;;;0.80;99.90;;;;;;5033034;28;20030;-70
2022/11/21 08:00:29;;;;;;;9.10;5.65;;;0.80;99.90;;;;;;5032720;28;20025;-71
2022/11/21 08:02:55;;;;;;;8.32;5.40;;;0.80;99.90;;;;;;5033480;28;20026;-71
2022/11/21 08:05:21;;;;;;;7.70;5.63;;;0.80;99.90;;;;;;5033094;28;20036;-71
2022/11/21 08:07:46;;;;;;;10.15;5.70;;;0.80;99.90;;;;;;5033223;28;20030;-71
2022/11/21 08:10:12;;;;;;;10.43;6.60;;;0.80;99.90;;;;;;5032535;28;20029;-71
2022/11/21 08:12:38;;;;;;;10.07;6.07;;;0.90;99.90;;;;;;5033085;28;20029;-72
2022/11/21 08:15:05;;;;;;;10.05;5.05;;;0.90;99.90;;;;;;5033058;28;20034;-73
2022/11/21 08:17:31;;;;;;;7.68;5.53;;;0.90;99.90;;;;;;5032931;28;20481;-72
2022/11/21 08:19:57;;;;;;;10.90;5.57;;;1.00;99.90;;;;;;5034796;28;20018;-72
2022/11/21 08:22:23;;;;;;;9.93;5.63;;;1.00;99.90;;;;;;5035866;28;20432;-72
2022/11/21 08:24:49;;;;;;;9.02;5.03;;;1.00;99.90;;;;;;5036766;28;20022;-72
2022/11/21 08:27:19;;;;;;;8.10;5.20;;;1.10;99.90;;;;;;5037239;28;20037;-73
2022/11/21 08:29:45;;;;;;;6.35;4.78;;;1.10;99.90;;;;;;5036931;28;20021;-73
2022/11/21 08:32:10;;;;;;;6.22;4.53;;;1.20;99.90;;;;;;5035949;28;20083;-73
2022/11/21 08:34:36;;;;;;;6.57;4.75;;;1.20;99.90;;;;;;5037022;28;20029;-73
2022/11/21 08:37:01;;;;;;;8.95;5.05;;;1.20;99.90;;;;;;5036904;28;20032;-73
2022/11/21 08:39:29;;;;;;;7.95;4.55;;;1.20;99.90;;;;;;5036400;28;20056;-73
2022/11/21 08:42:01;;;;;;;7.28;4.82;;;1.30;99.90;;;;;;5035267;28;20045;-73
2022/11/21 08:44:30;;;;;;;12.38;4.85;;;1.30;99.90;;;;;;5036273;28;20109;-73
2022/11/21 08:46:56;;;;;;;5.50;4.25;;;1.30;99.90;;;;;;5036483;28;20029;-74
2022/11/21 08:49:22;;;;;;;10.30;5.90;;;1.30;99.90;;;;;;5036601;28;20056;-73
2022/11/21 08:51:51;;;;;;;6.18;4.45;;;1.30;99.90;;;;;;5036957;28;20466;-73
2022/11/21 08:54:24;;;;;;;6.55;4.30;;;1.30;99.90;;;;;;5035758;28;20046;-73
2022/11/21 08:56:50;;;;;;;5.80;4.50;;;1.40;99.90;;;;;;5036641;28;20025;-74
2022/11/21 08:59:16;;;;;;;10.13;5.10;;;1.40;99.90;;;;;;5036393;28;20040;-74
2022/11/21 09:01:42;;;;;;;7.30;4.82;;;1.40;99.90;;;;;;5036189;28;20059;-74
2022/11/21 09:04:08;;;;;;;10.20;5.40;;;1.40;99.90;;;;;;5036247;28;20022;-74
2022/11/21 09:06:34;;;;;;;7.60;4.65;;;1.40;99.90;;;;;;5035747;28;20105;-74
2022/11/21 09:09:00;;;;;;;4.65;3.92;;;1.40;99.90;;;;;;5036154;28;20041;-74
2022/11/21 09:11:26;;;;;;;8.57;5.20;;;1.40;99.90;;;;;;5036224;28;20107;-74
2022/11/21 09:19:21;;;;;;;6.80;4.85;;;1.40;99.90;;;;;;5036685;28;20492;-74
2022/11/21 09:21:50;;;;;;;7.00;5.35;;;1.40;99.90;;;;;;5036299;28;20461;-74
2022/11/21 09:24:17;;;;;;;8.27;5.72;;;1.40;99.90;;;;;;5036259;28;20473;-74
2022/11/21 09:26:43;;;;;;;8.73;5.65;;;1.40;99.90;;;;;;5035955;28;20029;-74
2022/11/21 09:29:13;;;;;;;5.75;4.82;;;1.50;99.90;;;;;;5030342;28;20089;-73
2022/11/21 09:31:43;;;;;;;6.13;4.93;;;1.50;99.90;;;;;;5005818;28;20045;-73
2022/11/21 09:34:09;;;;;;;7.40;5.10;;;1.50;99.90;;;;;;5011175;28;20029;-74
2022/11/21 09:36:34;;;;;;;9.27;5.38;;;1.50;99.90;;;;;;5015797;28;20022;-74
2022/11/21 09:39:00;;;;;;;8.85;4.82;;;1.50;99.90;;;;;;5022547;28;20100;-74
2022/11/21 09:41:50;;;;;;;9.57;5.68;;;1.50;99.90;;;;;;5034935;28;20022;-74
2022/11/21 09:44:22;;;;;;;5.57;4.75;;;1.60;99.90;;;;;;5035110;28;20022;-74
2022/11/21 09:46:53;;;;;;;8.57;5.85;;;1.60;99.90;;;;;;5035444;28;20370;-74
2022/11/21 09:49:23;;;;;;;8.32;5.63;;;1.70;99.90;;;;;;5034236;28;20434;-74
2022/11/21 09:51:51;;;;;;;9.88;5.07;;;1.70;99.90;;;;;;5035152;28;20030;-73
2022/11/21 09:54:25;;;;;;;7.50;5.65;;;1.60;99.90;;;;;;5035228;28;20041;-73
2022/11/21 09:56:53;;;;;;;9.85;5.35;;;1.60;99.90;;;;;;5035157;28;20393;-73
2022/11/21 09:59:33;;;;;;;9.90;5.70;;;1.60;99.90;;;;;;5035327;28;20024;-73
2022/11/21 10:01:59;;;;;;;10.02;5.20;;;1.60;99.90;;;;;;5035317;28;20018;-73
2022/11/21 10:04:25;;;;;;;8.02;4.95;;;1.70;99.90;;;;;;5034803;28;20441;-73
2022/11/21 10:07:03;;;;;;;7.43;5.47;;;1.80;99.90;;;;;;5034762;28;20026;-73
2022/11/21 10:09:31;;;;;;;8.40;5.57;;;1.80;99.90;;;;;;5035107;28;20030;-74
2022/11/21 10:12:37;;;;;;;7.07;4.93;;;1.90;99.90;;;;;;5033682;28;20025;-73
2022/11/21 10:15:25;;;;;;;6.90;4.78;;;1.90;99.90;;;;;;5033548;28;20026;-74
2022/11/21 10:18:21;;;;;;;6.05;4.15;;;2.00;99.90;;;;;;5033093;28;20037;-73
2022/11/21 10:21:30;;;;;;;6.80;3.70;;;2.10;99.90;;;;;;5035267;28;20380;-74
2022/11/21 10:24:33;;;;;;;8.52;5.05;;;2.20;99.90;;;;;;5034473;28;20481;-74
2022/11/21 10:27:13;;;;;;;6.78;4.72;;;2.30;99.90;;;;;;5034237;28;20393;-74
2022/11/21 10:29:46;;;;;;;6.47;4.18;;;2.30;99.90;;;;;;5034721;28;20030;-74
2022/11/21 10:32:21;;;;;;;8.30;3.75;;;2.30;99.90;;;;;;5034885;28;20032;-74
2022/11/21 10:34:49;;;;;;;5.07;3.90;;;2.30;99.90;;;;;;5021021;28;20079;-74
2022/11/21 10:37:36;;;;;;;10.45;4.13;;;2.30;99.90;;;;;;5014338;28;20034;-74
2022/11/21 10:40:31;;;;;;;4.82;3.45;;;2.30;99.90;;;;;;5014626;28;20018;-74
2022/11/21 10:46:04;;;;;;;3.30;2.97;;;2.40;99.90;;;;;;5014997;28;20029;-74
2022/11/21 10:48:29;;;;;;;3.95;2.92;;;2.50;99.90;;;;;;5014744;28;20026;-74
2022/11/21 10:51:35;;;;;;;4.57;2.50;;;2.50;99.90;;;;;;5014498;28;20030;-74
2022/11/21 10:56:51;;;;;;;4.00;3.17;;;2.50;99.90;;;;;;5014893;28;20033;-74
2022/11/21 10:59:27;;;;;;;3.50;2.88;;;2.50;99.90;;;;;;5014463;28;20022;-74
2022/11/21 11:02:01;;;;;;;4.20;3.08;;;2.60;99.90;;;;;;5013976;28;20536;-74
2022/11/21 11:04:29;;;;;;;6.95;3.72;;;2.60;99.90;;;;;;5013063;28;20025;-74
2022/11/21 11:06:55;;;;;;;5.60;3.60;;;2.60;99.90;;;;;;5048880;23;20053;-74
2022/11/21 11:09:32;;;;;;;5.63;4.18;;;2.60;99.90;;;;;;5034182;28;20025;-75
2022/11/21 11:12:22;;;;;;;6.53;4.53;;;2.70;99.90;;;;;;5034450;28;20033;-74
2022/11/21 11:14:50;;;;;;;7.28;4.63;;;2.70;99.90;;;;;;5033485;28;20033;-74
2022/11/21 11:17:24;;;;;;;7.90;4.85;;;2.60;99.90;;;;;;5016078;28;20033;-74
2022/11/21 11:20:03;;;;;;;6.97;4.63;;;2.60;99.90;;;;;;5034014;28;20025;-75
2022/11/21 11:22:29;;;;;;;5.60;4.00;;;2.60;99.90;;;;;;5033966;28;20022;-75
2022/11/21 11:24:55;;;;;;;5.75;3.70;;;2.60;99.90;;;;;;5034243;28;20044;-75
2022/11/21 11:27:28;;;;;;;7.60;4.20;;;2.60;99.90;;;;;;5033296;28;20528;-75
2022/11/21 11:29:54;;;;;;;5.10;3.75;;;2.70;99.90;;;;;;5033871;28;20079;-74
2022/11/21 11:32:20;;;;;;;5.75;4.20;;;2.70;99.90;;;;;;5033989;28;20076;-74
2022/11/21 11:34:54;;;;;;;8.20;3.20;;;2.80;99.90;;;;;;5033516;28;20566;-74
2022/11/21 11:37:41;;;;;;;6.38;3.88;;;2.90;99.90;;;;;;5033613;28;20504;-75
2022/11/21 11:40:38;;;;;;;5.03;3.33;;;2.90;99.90;;;;;;5033160;28;20018;-75
2022/11/21 11:48:54;;;;;;;7.55;4.25;;;3.00;99.90;;;;;;5033588;28;20036;-75
2022/11/21 11:51:29;;;;;;;7.72;4.40;;;3.10;99.90;;;;;;5015834;28;20029;-75
2022/11/21 11:54:08;;;;;;;8.10;4.68;;;3.20;99.90;;;;;;5034973;28;20037;-75
2022/11/21 11:56:37;;;;;;;6.15;4.95;;;3.40;99.90;;;;;;5037544;28;20113;-75
2022/11/21 11:59:08;;;;;;;8.23;4.40;;;3.50;99.90;;;;;;5037506;28;20389;-75
2022/11/21 12:02:05;;;;;;;6.25;4.82;;;3.60;99.90;;;;;;5014299;28;20026;-75
2022/11/21 12:04:44;;;;;;;7.40;5.03;;;3.70;99.90;;;;;;5019811;28;20112;-75
2022/11/21 12:07:24;;;;;;;7.32;5.15;;;3.60;99.90;;;;;;5018842;28;20037;-75
2022/11/21 12:10:17;;;;;;;5.90;4.25;;;3.60;99.90;;;;;;5037097;28;20033;-74
2022/11/21 12:12:47;;;;;;;6.22;4.75;;;3.60;99.90;;;;;;5037024;28;20096;-74
2022/11/21 12:18:18;;;;;;;5.80;4.25;;;3.60;99.90;;;;;;5037016;28;20037;-75
2022/11/21 12:20:52;;;;;;;6.43;4.03;;;3.60;99.90;;;;;;5037053;28;20049;-75
2022/11/21 12:23:19;;;;;;;12.90;5.53;;;3.60;99.90;;;;;;5037515;28;20026;-74
2022/11/21 12:26:26;;;;;;;8.02;5.88;;;3.60;99.90;;;;;;5027213;28;20041;-74
2022/11/21 12:29:09;;;;;;;11.38;7.05;;;3.60;99.90;;;;;;5006286;28;20104;-74
2022/11/21 12:32:08;;;;;;;12.30;6.57;;;3.70;99.90;;;;;;5026020;28;20029;-74
2022/11/21 12:35:19;;;;;;;12.13;6.22;;;3.70;99.90;;;;;;5010189;28;20385;-74
2022/11/21 12:37:57;;;;;;;10.55;7.32;;;3.70;99.90;;;;;;5001350;28;20116;-74
2022/11/21 12:40:42;;;;;;;11.98;6.97;;;3.70;99.90;;;;;;5031828;28;20041;-74
2022/11/21 12:43:28;;;;;;;10.38;7.15;;;3.70;99.90;;;;;;5034504;28;20017;-74
2022/11/21 12:46:35;;;;;;;10.80;7.25;;;3.70;99.90;;;;;;5036429;28;20075;-74
2022/11/21 12:55:33;;;;;;;17.00;9.80;;;3.80;99.90;;;;;;5036867;28;20060;-76
2022/11/21 12:58:21;;;;;;;15.07;8.50;;;3.80;99.90;;;;;;5036603;28;20029;-77
2022/11/21 13:01:14;;;;;;;15.93;9.02;;;3.90;99.90;;;;;;5036774;28;20021;-77
2022/11/21 13:04:01;;;;;;;21.30;10.67;;;3.90;99.90;;;;;;5036741;28;20449;-75
2022/11/21 13:06:29;;;;;;;23.77;11.85;;;3.90;99.90;;;;;;5017526;28;20036;-75
2022/11/21 13:08:57;;;;;;;28.45;13.30;;;3.90;99.90;;;;;;5018725;28;20026;-75
2022/11/21 13:11:58;;;;;;;28.25;14.43;;;4.00;99.90;;;;;;5036262;28;20067;-74
2022/11/21 13:14:41;;;;;;;27.98;14.35;;;4.10;99.90;;;;;;5006517;28;20049;-74
2022/11/21 13:17:37;;;;;;;30.65;14.23;;;4.10;99.90;;;;;;5035859;28;20168;-74
2022/11/21 13:20:17;;;;;;;27.60;13.70;;;4.10;99.90;;;;;;5018404;28;20057;-75
2022/11/21 13:22:42;;;;;;;24.48;12.23;;;4.10;99.90;;;;;;5036652;28;20022;-75
2022/11/21 13:25:12;;;;;;;24.52;11.98;;;4.20;99.90;;;;;;5036114;28;20079;-74
2022/11/21 13:27:39;;;;;;;21.10;11.90;;;4.10;99.90;;;;;;5036069;28;20503;-75
2022/11/21 13:30:10;;;;;;;27.38;13.40;;;4.10;99.90;;;;;;5035488;28;20079;-75
2022/11/21 13:32:46;;;;;;;27.77;12.60;;;4.10;99.90;;;;;;5036199;28;20068;-74